This is the latest recevied weather packets stored in our database for station/object SV1TQE-1. If no packets are shown the sender has not sent any weather packets the latest 10 day(s).
| Time | Temp. | Humidity | Pressure | Rain* | Wind** | Luminosity | Snow |
|---|---|---|---|---|---|---|---|
| 1787559784 | 37.22° C | 40% | 1019.2 hPa | - | - | - | - |
| 1787558914 | 36.11° C | 42% | 1019.2 hPa | - | - | - | - |
| 1787558013 | 35.56° C | 42% | 1019.3 hPa | - | - | - | - |
| 1787557113 | 35° C | 43% | 1019.2 hPa | - | - | - | - |
| 1787556213 | 35° C | 45% | 1019.3 hPa | - | - | - | - |
| 1787555313 | 34.44° C | 47% | 1019.1 hPa | - | - | - | - |
| 1787554416 | 33.89° C | 47% | 1019.1 hPa | - | - | - | - |
| 1787553512 | 33.33° C | 49% | 1018.9 hPa | - | - | - | - |
| 1787552611 | 33.33° C | 50% | 1019 hPa | - | - | - | - |
| 1787551711 | 32.78° C | 51% | 1018.8 hPa | - | - | - | - |
| 1787550811 | 32.22° C | 51% | 1018.8 hPa | - | - | - | - |
| 1787549919 | 32.22° C | 51% | 1018.7 hPa | - | - | - | - |
| 1787549009 | 32.22° C | 52% | 1018.7 hPa | - | - | - | - |
| 1787548109 | 30.56° C | 52% | 1017.2 hPa | - | - | - | - |
| 1787547209 | 31.67° C | 52% | 1018.7 hPa | - | - | - | - |
| 1787546309 | 31.11° C | 53% | 1018.5 hPa | - | - | - | - |
| 1787545402 | 31.11° C | 54% | 1018.3 hPa | - | - | - | - |
| 1787544501 | 30.56° C | 54% | 1018.4 hPa | - | - | - | - |
| 1787543601 | 30.56° C | 53% | 1018.3 hPa | - | - | - | - |
| 1787542710 | 30.56° C | 53% | 1018.2 hPa | - | - | - | - |
| 1787540896 | 30° C | 53% | 1018.2 hPa | - | - | - | - |
| 1787539996 | 30.56° C | 52% | 1018.3 hPa | - | - | - | - |
| 1787539096 | 30.56° C | 51% | 1018.2 hPa | - | - | - | - |
| 1787538196 | 31.11° C | 51% | 1018.4 hPa | - | - | - | - |
| 1787537296 | 31.11° C | 50% | 1018.3 hPa | - | - | - | - |
* Rain since midnight (hover to see other rain measurements)
** Current wind speed in m/s (hover to see current wind gust speed)